Time;durP1;ratioP1;P1;durP2;ratioP2;P2;SDS_P1;SDS_P2;PMS_P1;PMS_P2;Temp;Humidity;BMP_temperature;BMP_pressure;BME280_temperature;BME280_humidity;BME280_pressure;Samples;Min_cycle;Max_cycle;Signal;HPM_P1;HPM_P2
2021/04/21 00:01:42;;;;;;;11.48;9.57;;;7.90;64.20;;;;;;6134700;23;20189;-77
2021/04/21 00:04:09;;;;;;;12.68;9.73;;;7.90;64.40;;;;;;6140463;23;20204;-78
2021/04/21 00:06:38;;;;;;;10.77;9.25;;;7.80;65.00;;;;;;6141550;23;20185;-81
2021/04/21 00:09:06;;;;;;;9.52;8.50;;;7.80;65.20;;;;;;6138931;23;20389;-77
2021/04/21 00:11:34;;;;;;;13.15;11.85;;;7.80;65.00;;;;;;6135912;23;20195;-78
2021/04/21 00:14:01;;;;;;;10.38;9.27;;;7.80;65.20;;;;;;6137646;23;20217;-78
2021/04/21 00:16:29;;;;;;;12.00;9.80;;;7.80;65.40;;;;;;6137153;23;20172;-79
2021/04/21 00:18:56;;;;;;;13.23;10.88;;;7.70;65.50;;;;;;6148922;23;20215;-76
2021/04/21 00:21:24;;;;;;;11.50;10.23;;;7.70;65.70;;;;;;6145467;23;20194;-78
2021/04/21 00:23:52;;;;;;;13.07;10.55;;;7.80;65.70;;;;;;6135004;23;20212;-78
2021/04/21 00:26:21;;;;;;;10.98;9.20;;;7.80;65.10;;;;;;6137527;23;20623;-78
2021/04/21 00:28:50;;;;;;;12.02;10.10;;;7.70;65.20;;;;;;6131800;23;20677;-76
2021/04/21 00:31:19;;;;;;;11.63;9.73;;;7.70;66.30;;;;;;6128704;23;20184;-77
2021/04/21 00:33:51;;;;;;;11.05;9.68;;;7.80;65.50;;;;;;6129308;23;20263;-78
2021/04/21 00:36:19;;;;;;;11.23;9.95;;;7.70;65.30;;;;;;6133030;23;20169;-78
2021/04/21 00:38:47;;;;;;;16.08;10.43;;;7.60;65.70;;;;;;6131753;23;20627;-78
2021/04/21 00:41:25;;;;;;;12.25;9.80;;;7.60;66.50;;;;;;6129732;23;20264;-77
2021/04/21 00:43:55;;;;;;;13.63;9.85;;;7.60;66.50;;;;;;6131011;23;20255;-78
2021/04/21 00:46:31;;;;;;;12.48;10.40;;;7.50;66.40;;;;;;6131937;23;20173;-78
2021/04/21 00:49:05;;;;;;;12.82;9.73;;;7.50;66.40;;;;;;6128753;23;20581;-78
2021/04/21 00:51:41;;;;;;;13.63;10.07;;;7.50;66.50;;;;;;6128163;23;20192;-77
2021/04/21 00:54:15;;;;;;;11.00;9.27;;;7.60;66.50;;;;;;6127581;23;20236;-78
2021/04/21 00:56:59;;;;;;;13.15;9.00;;;7.50;66.40;;;;;;6127698;23;20172;-77
2021/04/21 00:59:38;;;;;;;12.50;9.85;;;7.50;66.50;;;;;;6128355;23;20216;-78
2021/04/21 01:02:09;;;;;;;11.20;9.98;;;7.50;66.50;;;;;;6127180;23;20184;-79
2021/04/21 01:04:37;;;;;;;12.40;10.10;;;7.50;66.40;;;;;;6127605;23;20165;-77
2021/04/21 01:07:04;;;;;;;11.07;9.30;;;7.50;66.40;;;;;;6127006;23;20642;-77
2021/04/21 01:09:33;;;;;;;11.23;10.10;;;7.50;66.40;;;;;;6139360;23;20208;-78
2021/04/21 01:12:03;;;;;;;12.57;9.90;;;7.50;66.40;;;;;;6136231;23;20184;-78
2021/04/21 01:14:33;;;;;;;13.88;10.07;;;7.50;66.50;;;;;;6131446;23;20542;-79
2021/04/21 01:17:03;;;;;;;11.43;8.98;;;7.40;66.40;;;;;;6137692;23;20169;-78
2021/04/21 01:19:48;;;;;;;13.95;10.48;;;7.30;66.20;;;;;;6147070;23;20187;-76
2021/04/21 01:22:22;;;;;;;10.68;9.48;;;7.20;67.40;;;;;;6130656;23;20161;-77
2021/04/21 01:24:54;;;;;;;12.43;9.93;;;7.20;67.60;;;;;;6129018;23;20195;-77
2021/04/21 01:27:25;;;;;;;13.38;10.27;;;7.20;67.60;;;;;;6132006;23;20168;-77
2021/04/21 01:29:54;;;;;;;12.23;9.75;;;7.20;67.50;;;;;;6137068;23;20191;-77
2021/04/21 01:32:25;;;;;;;14.15;10.98;;;7.20;67.90;;;;;;6148562;23;20209;-77
2021/04/21 01:34:54;;;;;;;12.25;9.80;;;7.20;67.90;;;;;;6149641;23;20180;-77
2021/04/21 01:37:26;;;;;;;12.15;9.75;;;7.10;68.10;;;;;;6147430;23;20181;-78
2021/04/21 01:39:56;;;;;;;11.93;9.52;;;7.00;68.80;;;;;;6133413;23;20188;-78
2021/04/21 01:42:27;;;;;;;12.73;10.10;;;7.10;69.00;;;;;;6131597;23;20219;-78
2021/04/21 01:44:57;;;;;;;14.25;9.85;;;7.00;69.10;;;;;;6132249;23;20176;-77
2021/04/21 01:47:24;;;;;;;13.40;10.30;;;7.00;69.20;;;;;;6128748;23;20180;-78
2021/04/21 01:50:01;;;;;;;12.73;9.80;;;6.90;69.70;;;;;;6128615;23;20197;-77
2021/04/21 01:52:54;;;;;;;11.85;9.90;;;6.90;70.20;;;;;;6126364;23;20200;-78
2021/04/21 01:55:39;;;;;;;14.35;11.02;;;6.80;70.20;;;;;;6128272;23;20199;-78
2021/04/21 01:58:38;;;;;;;12.80;11.13;;;6.80;70.10;;;;;;6127817;23;20200;-80
2021/04/21 02:01:11;;;;;;;15.13;11.30;;;6.70;70.70;;;;;;6114367;23;20181;-78
2021/04/21 02:03:41;;;;;;;11.57;9.85;;;6.60;71.40;;;;;;6139774;23;20189;-77
2021/04/21 02:06:34;;;;;;;14.48;10.93;;;6.60;71.70;;;;;;6151968;23;20169;-78
2021/04/21 02:09:11;;;;;;;12.35;10.40;;;6.50;72.40;;;;;;6139329;23;20544;-81
2021/04/21 02:11:43;;;;;;;16.40;10.88;;;6.50;73.00;;;;;;6142587;23;20192;-78
2021/04/21 02:14:15;;;;;;;13.43;10.82;;;6.40;74.20;;;;;;6142340;23;20235;-78
2021/04/21 02:16:51;;;;;;;15.10;12.00;;;6.40;74.20;;;;;;6146799;23;20169;-78
2021/04/21 02:19:31;;;;;;;14.52;10.82;;;6.30;74.90;;;;;;6137196;23;20587;-77
2021/04/21 02:22:10;;;;;;;14.23;10.95;;;6.30;75.40;;;;;;6130889;23;20224;-76
2021/04/21 02:24:48;;;;;;;16.13;11.88;;;6.20;75.70;;;;;;6134900;23;20203;-77
2021/04/21 02:27:25;;;;;;;14.57;11.35;;;6.20;76.20;;;;;;6135356;23;20169;-78
2021/04/21 02:29:58;;;;;;;15.40;12.18;;;6.10;77.10;;;;;;6130914;23;20199;-78
2021/04/21 02:32:33;;;;;;;16.58;12.18;;;6.10;78.10;;;;;;6131736;23;20224;-78
2021/04/21 02:35:09;;;;;;;16.70;13.05;;;6.10;78.00;;;;;;6135149;23;20160;-78
2021/04/21 02:37:40;;;;;;;14.40;10.85;;;6.10;78.00;;;;;;6133076;23;20187;-77
2021/04/21 02:40:14;;;;;;;14.48;12.75;;;6.10;78.40;;;;;;6134404;23;20165;-77
2021/04/21 02:42:48;;;;;;;13.82;11.57;;;6.10;77.60;;;;;;6128727;23;20196;-77
2021/04/21 02:45:22;;;;;;;14.70;11.63;;;6.10;77.40;;;;;;6128497;23;20165;-78
2021/04/21 02:47:56;;;;;;;12.95;10.77;;;6.00;77.30;;;;;;6134433;23;20187;-77
2021/04/21 02:50:28;;;;;;;18.30;11.98;;;6.00;77.40;;;;;;6130278;23;20693;-77
2021/04/21 02:53:06;;;;;;;15.98;12.15;;;5.90;77.80;;;;;;6131638;23;20204;-77
2021/04/21 02:55:53;;;;;;;13.20;10.75;;;5.90;78.50;;;;;;6128128;23;20168;-78
2021/04/21 02:58:28;;;;;;;12.93;10.63;;;5.90;78.60;;;;;;6126633;23;20180;-77
2021/04/21 03:01:09;;;;;;;14.30;10.60;;;5.90;78.70;;;;;;6147788;23;20153;-75
2021/04/21 03:03:46;;;;;;;13.70;10.35;;;5.90;78.60;;;;;;6150654;23;20200;-76
2021/04/21 03:06:21;;;;;;;13.85;11.45;;;5.80;78.40;;;;;;6151341;23;20172;-76
2021/04/21 03:08:53;;;;;;;15.13;11.73;;;5.70;78.70;;;;;;6150400;23;20210;-76
2021/04/21 03:11:21;;;;;;;13.90;11.13;;;5.80;79.50;;;;;;6150911;23;20153;-77
2021/04/21 03:13:58;;;;;;;16.42;11.32;;;5.80;79.70;;;;;;6150782;23;20207;-77
2021/04/21 03:16:28;;;;;;;17.50;10.70;;;5.80;80.10;;;;;;6151253;23;20165;-76
2021/04/21 03:18:59;;;;;;;17.00;11.43;;;5.70;79.30;;;;;;6144503;23;20191;-76
2021/04/21 03:21:28;;;;;;;11.07;9.70;;;5.70;79.60;;;;;;6132362;23;20176;-77
2021/04/21 03:23:59;;;;;;;14.32;10.70;;;5.70;80.20;;;;;;6134933;23;20252;-78
2021/04/21 03:26:27;;;;;;;12.80;10.25;;;5.80;80.90;;;;;;6134242;23;20169;-77
2021/04/21 03:28:59;;;;;;;15.30;11.43;;;5.80;80.40;;;;;;6132840;23;20196;-76
2021/04/21 03:31:30;;;;;;;14.02;11.32;;;5.90;80.10;;;;;;6133627;23;20168;-79
2021/04/21 03:34:02;;;;;;;14.60;10.40;;;5.90;79.60;;;;;;6133237;23;20215;-78
2021/04/21 03:36:29;;;;;;;14.13;11.00;;;5.90;79.10;;;;;;6138302;23;20255;-77
2021/04/21 03:38:56;;;;;;;14.07;11.77;;;5.80;78.80;;;;;;6151754;23;20180;-73
2021/04/21 03:41:23;;;;;;;14.68;10.85;;;5.80;78.90;;;;;;6150471;23;20172;-73
2021/04/21 03:43:51;;;;;;;15.52;12.30;;;5.70;79.30;;;;;;6150332;23;20204;-74
2021/04/21 03:46:18;;;;;;;16.35;10.68;;;5.70;80.00;;;;;;6150368;23;20259;-74
2021/04/21 03:48:45;;;;;;;14.07;10.93;;;5.70;79.40;;;;;;6134473;23;20263;-73
2021/04/21 03:51:14;;;;;;;15.50;10.30;;;5.60;79.70;;;;;;6129294;23;20701;-74
2021/04/21 03:53:42;;;;;;;14.68;10.98;;;5.50;79.90;;;;;;6125340;23;20327;-74
2021/04/21 03:56:12;;;;;;;14.07;11.07;;;5.50;80.10;;;;;;6129102;23;20212;-75
2021/04/21 03:58:39;;;;;;;16.63;11.90;;;5.40;80.30;;;;;;6129208;23;20177;-74
2021/04/21 04:01:11;;;;;;;15.95;11.52;;;5.40;81.70;;;;;;6129136;23;20188;-74
2021/04/21 04:03:40;;;;;;;17.42;12.48;;;5.40;81.70;;;;;;6128452;23;20579;-73
2021/04/21 04:06:12;;;;;;;16.15;11.85;;;5.40;81.70;;;;;;6129191;23;20196;-74
2021/04/21 04:08:43;;;;;;;16.23;12.00;;;5.40;81.70;;;;;;6129407;23;20169;-74
2021/04/21 04:11:12;;;;;;;17.70;12.82;;;5.40;81.70;;;;;;6127718;23;20189;-74
2021/04/21 04:13:43;;;;;;;17.42;12.25;;;5.30;81.70;;;;;;6126101;23;20216;-73
2021/04/21 04:16:12;;;;;;;14.02;12.02;;;5.20;81.60;;;;;;6126800;23;20207;-73
2021/04/21 04:18:42;;;;;;;22.15;12.43;;;5.20;81.60;;;;;;6127447;23;20208;-74
2021/04/21 04:21:11;;;;;;;14.20;11.15;;;5.10;81.50;;;;;;6127554;23;20181;-74
2021/04/21 04:23:40;;;;;;;17.42;12.43;;;5.20;82.90;;;;;;6126399;23;20679;-74
2021/04/21 04:26:08;;;;;;;14.02;11.25;;;5.20;82.50;;;;;;6127446;23;20247;-73
2021/04/21 04:28:36;;;;;;;14.95;11.02;;;5.20;82.70;;;;;;6128139;23;20263;-75
2021/04/21 04:31:03;;;;;;;16.20;12.50;;;5.20;82.60;;;;;;6127983;23;20224;-76
2021/04/21 04:33:31;;;;;;;16.63;11.65;;;5.20;82.80;;;;;;6126624;23;20200;-74
2021/04/21 04:35:58;;;;;;;16.77;12.60;;;5.20;83.10;;;;;;6129681;23;20219;-74
2021/04/21 04:38:24;;;;;;;16.40;11.68;;;5.20;83.10;;;;;;6128273;23;20185;-75
2021/04/21 04:40:53;;;;;;;14.75;11.43;;;5.20;83.10;;;;;;6128537;23;20631;-74
2021/04/21 04:43:21;;;;;;;17.63;12.85;;;5.30;83.20;;;;;;6128523;23;20212;-74
2021/04/21 04:45:56;;;;;;;15.00;12.52;;;5.30;81.70;;;;;;6130340;23;20294;-74
2021/04/21 04:48:30;;;;;;;15.70;12.02;;;5.40;81.70;;;;;;6134190;23;20594;-74
2021/04/21 04:51:00;;;;;;;19.48;13.68;;;5.40;81.70;;;;;;6150141;23;20192;-73
2021/04/21 04:53:29;;;;;;;15.45;11.77;;;5.50;81.80;;;;;;6148706;23;20223;-73
2021/04/21 04:55:58;;;;;;;15.95;11.25;;;5.70;82.00;;;;;;6147192;23;20271;-75
2021/04/21 04:58:28;;;;;;;16.83;11.40;;;5.90;80.90;;;;;;6146891;23;20191;-75
2021/04/21 05:01:00;;;;;;;13.50;10.32;;;6.30;78.90;;;;;;6132943;23;20204;-74
2021/04/21 05:03:30;;;;;;;13.63;10.45;;;6.60;75.70;;;;;;6133370;23;20287;-74
2021/04/21 05:05:58;;;;;;;17.80;11.15;;;6.90;70.30;;;;;;6145092;23;20173;-73
2021/04/21 05:08:28;;;;;;;13.52;10.88;;;7.30;68.30;;;;;;6145829;23;20312;-73
2021/04/21 05:11:00;;;;;;;16.08;10.60;;;7.70;65.10;;;;;;6147764;23;20188;-74
2021/04/21 05:13:30;;;;;;;12.95;10.07;;;8.00;62.10;;;;;;6146305;23;20212;-74
2021/04/21 05:16:26;;;;;;;14.15;9.65;;;8.30;58.70;;;;;;6149214;23;20236;-75
2021/04/21 05:19:20;;;;;;;12.60;10.55;;;8.50;55.70;;;;;;6129220;23;20169;-74
2021/04/21 05:22:50;;;;;;;12.40;9.05;;;8.80;55.20;;;;;;6077341;23;20512;-74
2021/04/21 05:25:53;;;;;;;10.93;9.52;;;9.40;53.20;;;;;;6126232;23;20179;-75
2021/04/21 05:28:58;;;;;;;12.93;9.40;;;9.90;50.20;;;;;;6126317;23;20267;-74
2021/04/21 05:32:08;;;;;;;12.63;10.13;;;10.10;47.80;;;;;;6127131;23;20192;-78
2021/04/21 05:35:29;;;;;;;15.55;9.60;;;10.40;46.30;;;;;;6128005;23;20264;-77
2021/04/21 05:38:28;;;;;;;13.60;9.43;;;10.70;44.00;;;;;;6129397;23;20161;-77
2021/04/21 05:41:30;;;;;;;10.73;9.07;;;10.80;44.20;;;;;;6135356;23;20495;-77
2021/04/21 05:44:53;;;;;;;13.02;9.45;;;11.10;43.30;;;;;;6098442;23;20208;-76
2021/04/21 05:47:51;;;;;;;11.32;8.85;;;11.50;40.90;;;;;;6130361;23;20219;-79
2021/04/21 05:50:50;;;;;;;11.35;9.30;;;11.80;41.20;;;;;;6128346;23;20185;-77
2021/04/21 05:53:49;;;;;;;11.02;9.20;;;11.90;41.00;;;;;;6125561;23;20267;-77
2021/04/21 05:57:04;;;;;;;15.13;9.68;;;12.30;39.50;;;;;;6139113;23;20169;-78
2021/04/21 06:00:22;;;;;;;11.00;9.00;;;12.40;38.60;;;;;;6126936;23;20241;-77
2021/04/21 06:02:51;;;;;;;14.45;9.73;;;12.60;38.60;;;;;;6067068;23;20213;-76
2021/04/21 06:05:19;;;;;;;10.75;9.63;;;12.60;37.60;;;;;;6066669;23;20532;-77
2021/04/21 06:07:45;;;;;;;14.05;9.75;;;12.60;37.90;;;;;;6066534;23;20731;-77
2021/04/21 06:10:24;;;;;;;11.85;10.02;;;12.70;37.60;;;;;;6068742;23;20229;-80
2021/04/21 06:12:57;;;;;;;13.27;11.05;;;12.70;37.50;;;;;;6089139;23;20201;-80
2021/04/21 06:15:26;;;;;;;15.18;10.75;;;12.90;37.20;;;;;;6090139;23;20169;-76
2021/04/21 06:17:55;;;;;;;16.10;9.55;;;12.60;36.90;;;;;;6090835;23;20182;-77
2021/04/21 06:20:34;;;;;;;12.50;10.00;;;12.30;38.40;;;;;;6087289;23;20181;-77
2021/04/21 06:23:06;;;;;;;12.63;10.85;;;12.30;38.40;;;;;;6086945;23;20680;-76
2021/04/21 06:25:33;;;;;;;14.93;12.18;;;11.50;40.90;;;;;;6087486;23;20170;-76
2021/04/21 06:28:10;;;;;;;14.68;11.77;;;10.30;43.90;;;;;;6088876;23;20218;-77
2021/04/21 06:30:37;;;;;;;17.13;13.02;;;10.20;44.90;;;;;;6080489;23;20193;-76
2021/04/21 06:33:07;;;;;;;15.32;12.52;;;10.10;45.90;;;;;;6093781;23;20204;-77
2021/04/21 06:35:33;;;;;;;12.73;10.32;;;10.20;44.90;;;;;;6149943;23;20232;-78
2021/04/21 06:38:01;;;;;;;15.38;11.45;;;10.30;45.20;;;;;;6151612;23;20200;-77
2021/04/21 06:40:30;;;;;;;13.40;11.13;;;10.40;44.60;;;;;;6152829;23;20184;-76
2021/04/21 06:42:57;;;;;;;13.60;11.27;;;10.20;45.60;;;;;;6151644;23;20272;-78
2021/04/21 06:45:25;;;;;;;14.30;12.80;;;10.20;46.10;;;;;;6150856;23;20173;-78
2021/04/21 06:47:52;;;;;;;15.15;11.65;;;10.40;45.60;;;;;;6149460;23;20460;-78
2021/04/21 06:50:26;;;;;;;14.30;11.63;;;10.50;45.50;;;;;;6147420;23;20232;-78
2021/04/21 06:52:59;;;;;;;14.68;12.68;;;10.70;44.70;;;;;;6150078;23;20189;-76
2021/04/21 06:55:25;;;;;;;15.02;11.60;;;10.90;44.60;;;;;;6150392;23;20164;-79
2021/04/21 06:57:52;;;;;;;15.00;11.05;;;10.60;45.00;;;;;;6149423;23;20187;-78
2021/04/21 07:00:21;;;;;;;13.32;11.70;;;10.60;45.00;;;;;;6148831;23;20189;-78
2021/04/21 07:02:51;;;;;;;16.83;12.20;;;10.60;45.00;;;;;;6149247;23;20207;-80
2021/04/21 07:05:31;;;;;;;13.82;12.23;;;10.80;44.80;;;;;;6148408;23;20177;-78
2021/04/21 07:08:02;;;;;;;18.42;12.65;;;11.00;43.80;;;;;;6139196;23;20169;-78
2021/04/21 07:10:29;;;;;;;18.63;12.00;;;11.00;43.80;;;;;;6146576;23;20201;-79
2021/04/21 07:12:57;;;;;;;15.57;12.00;;;11.10;43.60;;;;;;6149725;23;20247;-79
2021/04/21 07:15:24;;;;;;;14.85;12.00;;;11.30;42.90;;;;;;6148378;23;20173;-79
2021/04/21 07:17:51;;;;;;;15.48;11.90;;;11.40;42.80;;;;;;6149272;23;20173;-75
2021/04/21 07:20:19;;;;;;;15.35;12.18;;;11.50;42.40;;;;;;6149056;23;20191;-79
2021/04/21 07:22:48;;;;;;;14.15;12.52;;;11.60;42.10;;;;;;6149793;23;20188;-75
2021/04/21 07:25:16;;;;;;;17.95;12.27;;;11.80;41.20;;;;;;6149788;23;20607;-75
2021/04/21 07:27:48;;;;;;;17.23;12.00;;;11.90;41.30;;;;;;6150484;23;20180;-76
2021/04/21 07:30:23;;;;;;;14.45;11.02;;;12.00;41.40;;;;;;6150614;23;20183;-76
2021/04/21 07:32:49;;;;;;;15.10;11.52;;;12.00;41.40;;;;;;6150045;23;20185;-77
2021/04/21 07:35:21;;;;;;;17.83;12.85;;;12.10;41.50;;;;;;6150654;23;20236;-76
2021/04/21 07:37:50;;;;;;;14.35;11.63;;;12.30;40.90;;;;;;6150845;23;20180;-77
2021/04/21 07:40:25;;;;;;;15.10;11.73;;;11.90;41.30;;;;;;6149416;23;20189;-77
2021/04/21 07:43:13;;;;;;;14.35;11.65;;;11.80;41.20;;;;;;6149206;23;20207;-78
2021/04/21 07:45:54;;;;;;;15.63;12.18;;;12.20;41.10;;;;;;6149146;23;20170;-77
2021/04/21 07:48:37;;;;;;;17.17;12.80;;;12.50;39.80;;;;;;6147145;23;20226;-79
2021/04/21 07:51:31;;;;;;;13.10;11.00;;;12.70;39.40;;;;;;6149304;23;20183;-77
2021/04/21 07:54:02;;;;;;;13.05;11.07;;;12.90;38.80;;;;;;6146462;23;20224;-78
2021/04/21 07:56:34;;;;;;;15.73;11.98;;;13.10;37.80;;;;;;6146992;23;20168;-77
2021/04/21 07:59:17;;;;;;;19.55;12.70;;;13.20;37.50;;;;;;6147035;23;20180;-77
2021/04/21 08:01:44;;;;;;;13.75;12.05;;;13.20;37.50;;;;;;6130058;23;20169;-76
2021/04/21 08:04:22;;;;;;;17.63;12.98;;;12.80;38.20;;;;;;6132833;23;20215;-77
2021/04/21 08:06:51;;;;;;;15.48;12.45;;;12.80;37.80;;;;;;6136495;23;20176;-77
2021/04/21 08:09:18;;;;;;;15.88;12.95;;;12.90;37.70;;;;;;6139454;23;20196;-77
2021/04/21 08:11:45;;;;;;;18.13;13.45;;;12.90;38.10;;;;;;6143173;23;20180;-78
2021/04/21 08:14:13;;;;;;;15.13;11.70;;;13.10;38.40;;;;;;6143523;23;20208;-79
2021/04/21 08:16:40;;;;;;;14.57;13.00;;;13.20;37.80;;;;;;6146979;23;20169;-79
2021/04/21 08:19:17;;;;;;;15.90;12.15;;;13.40;36.60;;;;;;6153451;23;20181;-76
2021/04/21 08:21:45;;;;;;;13.88;12.43;;;13.60;36.60;;;;;;6153726;23;20169;-78
2021/04/21 08:24:14;;;;;;;16.17;12.32;;;13.90;35.50;;;;;;6145400;23;20200;-77
2021/04/21 08:26:43;;;;;;;22.92;13.43;;;14.20;34.80;;;;;;6137725;23;20172;-78
2021/04/21 08:29:11;;;;;;;17.25;13.02;;;14.40;34.00;;;;;;6152106;23;20195;-76
2021/04/21 08:31:39;;;;;;;14.93;13.05;;;14.30;33.90;;;;;;6153989;23;20190;-76
2021/04/21 08:34:05;;;;;;;13.65;11.05;;;14.40;34.20;;;;;;6140013;23;20619;-76
2021/04/21 08:36:32;;;;;;;16.30;12.18;;;14.70;33.80;;;;;;6131557;23;20239;-76
2021/04/21 08:38:59;;;;;;;17.17;13.35;;;14.90;34.00;;;;;;6130157;23;20189;-77
2021/04/21 08:41:27;;;;;;;17.30;11.90;;;14.50;33.60;;;;;;6129931;23;20181;-77
2021/04/21 08:43:55;;;;;;;12.77;11.20;;;14.40;34.40;;;;;;6131630;23;20697;-76
2021/04/21 08:46:23;;;;;;;19.08;12.75;;;14.70;33.80;;;;;;6128857;23;20242;-76
2021/04/21 08:48:49;;;;;;;16.45;13.98;;;14.90;34.00;;;;;;6128288;23;20188;-76
2021/04/21 08:51:17;;;;;;;30.20;14.05;;;15.00;32.70;;;;;;6127080;23;20192;-76
2021/04/21 08:53:47;;;;;;;20.60;11.73;;;15.10;33.30;;;;;;6128003;23;20287;-77
2021/04/21 08:56:16;;;;;;;14.35;12.77;;;15.10;34.00;;;;;;6128196;23;20918;-77
2021/04/21 08:58:44;;;;;;;17.98;14.10;;;15.10;33.00;;;;;;6128443;23;20180;-76
2021/04/21 09:01:13;;;;;;;15.63;12.63;;;15.20;33.30;;;;;;6127808;23;20176;-77
2021/04/21 09:03:40;;;;;;;13.13;11.60;;;15.10;34.20;;;;;;6127933;23;20519;-76
2021/04/21 09:06:07;;;;;;;14.27;11.57;;;15.10;33.90;;;;;;6128722;23;20936;-76
2021/04/21 09:08:36;;;;;;;18.20;13.07;;;15.40;32.30;;;;;;6127810;23;20428;-77
2021/04/21 09:11:03;;;;;;;13.37;11.77;;;15.40;32.70;;;;;;6128443;23;20628;-76
2021/04/21 09:13:29;;;;;;;30.30;13.83;;;15.70;32.10;;;;;;6127187;23;20438;-77
2021/04/21 09:15:56;;;;;;;16.80;12.57;;;15.90;30.60;;;;;;6134469;23;20397;-77
2021/04/21 09:18:28;;;;;;;17.07;12.67;;;15.50;31.50;;;;;;6130615;23;20426;-76
2021/04/21 09:20:55;;;;;;;17.00;12.90;;;15.50;31.90;;;;;;6127902;23;20439;-75
2021/04/21 09:23:21;;;;;;;17.07;13.40;;;15.50;32.00;;;;;;6127562;23;20438;-76
2021/04/21 09:25:50;;;;;;;14.40;12.77;;;15.80;30.70;;;;;;6127817;23;20492;-76
2021/04/21 09:28:19;;;;;;;14.32;12.00;;;15.60;31.40;;;;;;6128839;23;20457;-76
2021/04/21 09:30:52;;;;;;;13.75;12.32;;;15.70;31.20;;;;;;6129806;23;20258;-75
2021/04/21 09:33:19;;;;;;;16.23;13.03;;;15.90;30.80;;;;;;6128881;23;20794;-74
2021/04/21 09:35:47;;;;;;;16.40;12.50;;;16.00;29.90;;;;;;6130067;23;20411;-75
2021/04/21 09:38:16;;;;;;;14.57;12.07;;;16.20;29.70;;;;;;6130015;23;20387;-77
2021/04/21 09:40:48;;;;;;;15.27;12.33;;;16.40;29.00;;;;;;6130388;23;20383;-76
2021/04/21 09:43:19;;;;;;;14.87;12.30;;;16.70;28.10;;;;;;6133426;23;20767;-75
2021/04/21 09:45:48;;;;;;;16.03;13.17;;;16.40;28.60;;;;;;6130172;23;20455;-75
2021/04/21 09:48:16;;;;;;;16.50;12.67;;;16.50;29.10;;;;;;6129105;23;20537;-76
2021/04/21 09:50:44;;;;;;;16.77;13.00;;;16.90;28.50;;;;;;6129191;23;20455;-75
2021/04/21 09:53:27;;;;;;;15.90;10.53;;;17.20;26.90;;;;;;6128845;23;20511;-75
2021/04/21 09:56:08;;;;;;;14.07;11.40;;;17.40;27.10;;;;;;6128357;23;20480;-77
2021/04/21 09:58:37;;;;;;;14.50;11.60;;;17.00;26.70;;;;;;6127544;23;20703;-75
2021/04/21 10:01:25;;;;;;;17.80;11.53;;;16.80;26.90;;;;;;6126156;23;20492;-77
2021/04/21 10:04:06;;;;;;;13.97;11.40;;;17.30;26.30;;;;;;6128218;23;20422;-75
2021/04/21 10:06:33;;;;;;;14.03;10.23;;;17.60;26.50;;;;;;6131868;23;20726;-76
2021/04/21 10:09:01;;;;;;;13.17;10.27;;;17.80;26.00;;;;;;6131822;23;20386;-77
2021/04/21 10:11:27;;;;;;;14.10;11.50;;;17.50;25.00;;;;;;6131259;23;20457;-76
2021/04/21 10:13:58;;;;;;;13.50;11.07;;;17.00;26.70;;;;;;6131308;23;20423;-76
2021/04/21 10:16:25;;;;;;;13.03;10.40;;;17.20;26.10;;;;;;6130727;23;20491;-77
2021/04/21 10:18:52;;;;;;;11.37;9.63;;;17.40;23.90;;;;;;6130490;23;20416;-74
2021/04/21 10:21:20;;;;;;;13.40;9.17;;;17.60;23.90;;;;;;6128516;23;20409;-77
2021/04/21 10:23:48;;;;;;;11.23;9.40;;;17.90;22.50;;;;;;6132431;23;20851;-76
2021/04/21 10:26:17;;;;;;;13.70;11.80;;;18.00;22.50;;;;;;6131929;23;20399;-76
2021/04/21 10:28:45;;;;;;;10.57;9.10;;;18.10;22.80;;;;;;6129854;23;20394;-76
2021/04/21 10:31:15;;;;;;;10.37;9.10;;;18.30;22.60;;;;;;6135006;23;20422;-77
2021/04/21 10:33:42;;;;;;;8.77;7.87;;;18.00;22.60;;;;;;6130071;23;20536;-77
2021/04/21 10:36:10;;;;;;;9.97;8.70;;;17.70;22.40;;;;;;6132518;23;20390;-78
2021/04/21 10:38:41;;;;;;;11.80;8.87;;;17.60;23.50;;;;;;6141526;23;20413;-76
2021/04/21 10:41:35;;;;;;;11.57;9.80;;;18.10;23.40;;;;;;6129139;23;20415;-77
2021/04/21 10:44:13;;;;;;;10.77;9.47;;;18.50;23.00;;;;;;6129033;23;20397;-78
2021/04/21 10:47:01;;;;;;;11.73;9.37;;;18.30;23.00;;;;;;6129278;23;20390;-78
2021/04/21 10:49:55;;;;;;;9.50;8.50;;;18.10;22.20;;;;;;6126168;23;20402;-77
2021/04/21 10:52:23;;;;;;;10.23;8.93;;;18.20;21.50;;;;;;6125864;23;20379;-76
2021/04/21 10:54:53;;;;;;;10.20;7.53;;;18.40;21.30;;;;;;6126887;23;20452;-76
2021/04/21 10:57:28;;;;;;;15.37;8.13;;;18.80;21.30;;;;;;6127048;23;20900;-76
2021/04/21 11:00:13;;;;;;;9.63;8.63;;;19.40;20.20;;;;;;6135435;23;20383;-76
2021/04/21 11:03:01;;;;;;;8.87;7.60;;;19.50;20.30;;;;;;6133349;23;20443;-76
2021/04/21 11:05:44;;;;;;;9.33;7.43;;;19.90;20.10;;;;;;6136777;23;20386;-76
2021/04/21 11:08:14;;;;;;;9.20;7.77;;;19.50;20.00;;;;;;6125662;23;20465;-77
2021/04/21 11:10:47;;;;;;;8.57;7.30;;;19.50;20.30;;;;;;6127627;23;20430;-76
2021/04/21 11:13:16;;;;;;;13.60;10.20;;;19.70;20.50;;;;;;6127170;23;20839;-77
2021/04/21 11:15:45;;;;;;;12.20;10.17;;;19.30;20.50;;;;;;6126868;23;20412;-76
2021/04/21 11:18:38;;;;;;;11.03;9.93;;;18.90;21.20;;;;;;6126090;23;20423;-76
2021/04/21 11:21:08;;;;;;;10.43;8.87;;;18.50;21.30;;;;;;6127311;23;20399;-77
2021/04/21 11:23:54;;;;;;;10.37;8.40;;;18.80;21.80;;;;;;6127196;23;20540;-76
2021/04/21 11:26:38;;;;;;;9.40;8.47;;;19.40;20.30;;;;;;6127872;23;20507;-76
2021/04/21 11:29:08;;;;;;;12.63;9.40;;;20.00;20.10;;;;;;6129096;23;20387;-76
2021/04/21 11:32:09;;;;;;;9.77;7.43;;;20.20;19.60;;;;;;6127220;23;20444;-75
2021/04/21 11:34:41;;;;;;;11.40;10.20;;;20.50;19.00;;;;;;6128606;23;20383;-76
2021/04/21 11:37:18;;;;;;;10.53;9.27;;;20.00;20.10;;;;;;6129409;23;20466;-75
2021/04/21 11:39:49;;;;;;;9.93;8.27;;;20.00;20.10;;;;;;6142302;23;20450;-76
2021/04/21 11:42:17;;;;;;;11.40;9.83;;;20.20;20.40;;;;;;6142169;23;20463;-76
2021/04/21 11:44:56;;;;;;;10.33;9.30;;;20.20;19.50;;;;;;6142589;23;20413;-76
2021/04/21 11:47:44;;;;;;;10.10;8.90;;;19.40;20.20;;;;;;6138379;23;20443;-76
2021/04/21 11:50:20;;;;;;;10.47;8.43;;;19.40;20.20;;;;;;6134283;23;20414;-75
2021/04/21 11:52:53;;;;;;;9.83;8.83;;;19.60;20.40;;;;;;6136959;23;20463;-78
2021/04/21 11:55:26;;;;;;;10.10;8.70;;;19.70;20.40;;;;;;6136617;23;20431;-75
2021/04/21 11:57:55;;;;;;;11.70;8.67;;;19.80;19.90;;;;;;6134943;23;20367;-75
2021/04/21 12:00:34;;;;;;;10.13;8.70;;;19.70;19.80;;;;;;6142054;23;20451;-75
2021/04/21 12:03:07;;;;;;;10.23;8.77;;;19.50;20.30;;;;;;6140745;23;20432;-75
2021/04/21 12:05:35;;;;;;;9.73;8.30;;;19.50;20.40;;;;;;6142258;23;20431;-76
2021/04/21 12:08:03;;;;;;;9.40;8.40;;;19.70;19.80;;;;;;6145034;23;20383;-76
2021/04/21 12:10:33;;;;;;;12.00;9.20;;;19.60;20.00;;;;;;6144325;23;20451;-77
2021/04/21 12:13:26;;;;;;;10.47;8.43;;;19.50;20.00;;;;;;6146524;23;20515;-76
2021/04/21 12:15:59;;;;;;;9.17;8.20;;;19.60;19.70;;;;;;6146539;23;20451;-74
2021/04/21 12:18:37;;;;;;;9.70;8.53;;;20.10;19.20;;;;;;6143644;23;20382;-77
2021/04/21 12:21:06;;;;;;;8.30;7.43;;;20.40;18.50;;;;;;6142507;23;20420;-77
2021/04/21 12:23:35;;;;;;;10.33;7.20;;;20.30;18.20;;;;;;6148664;23;20426;-75
2021/04/21 12:26:03;;;;;;;9.73;7.40;;;20.10;18.30;;;;;;6149426;23;20388;-76
2021/04/21 12:28:43;;;;;;;11.07;7.80;;;20.10;18.70;;;;;;6150070;23;20386;-76
2021/04/21 12:31:11;;;;;;;9.30;7.03;;;19.90;18.80;;;;;;6151268;23;20416;-77
2021/04/21 12:33:37;;;;;;;8.43;7.60;;;20.00;19.00;;;;;;6148995;23;20483;-76
2021/04/21 12:36:05;;;;;;;8.10;7.30;;;19.80;18.00;;;;;;6131369;23;20736;-75
2021/04/21 12:38:34;;;;;;;7.90;7.10;;;19.30;18.60;;;;;;6130633;23;20805;-76
2021/04/21 12:41:01;;;;;;;7.70;7.00;;;19.10;18.60;;;;;;6127931;23;20440;-78
2021/04/21 12:43:31;;;;;;;7.73;6.87;;;19.40;17.40;;;;;;6126971;23;20441;-76
2021/04/21 12:46:19;;;;;;;6.40;5.80;;;19.60;17.10;;;;;;6127139;23;20903;-76
2021/04/21 12:48:47;;;;;;;7.03;6.33;;;20.30;16.70;;;;;;6128151;23;20800;-75
2021/04/21 12:51:19;;;;;;;8.13;6.43;;;20.90;15.70;;;;;;6127877;23;20535;-76
2021/04/21 12:53:46;;;;;;;6.93;6.27;;;21.50;15.50;;;;;;6127374;23;20387;-77
2021/04/21 12:56:13;;;;;;;7.80;7.00;;;21.70;14.40;;;;;;6127767;23;20478;-76
2021/04/21 12:58:42;;;;;;;7.27;5.97;;;21.90;14.70;;;;;;6127825;23;20979;-75
2021/04/21 13:01:13;;;;;;;6.43;5.93;;;21.70;15.20;;;;;;6128002;23;20398;-74
2021/04/21 13:03:56;;;;;;;7.47;5.70;;;21.60;14.80;;;;;;6126238;23;20411;-76
2021/04/21 13:06:50;;;;;;;6.43;5.80;;;21.50;13.40;;;;;;6126704;23;20416;-76
2021/04/21 13:09:18;;;;;;;8.80;5.40;;;21.30;14.00;;;;;;6091690;23;20433;-75